sensor_id;sensor_type;location;lat;lon;timestamp;temperature;humidity
69546;SHT31;56766;52.260;20.746;2023-05-07T00:00:22;5.91;89.33
69546;SHT31;56766;52.260;20.746;2023-05-07T00:03:09;5.92;89.34
69546;SHT31;56766;52.260;20.746;2023-05-07T00:05:37;5.90;89.30
69546;SHT31;56766;52.260;20.746;2023-05-07T00:08:04;5.87;89.35
69546;SHT31;56766;52.260;20.746;2023-05-07T00:10:31;5.85;89.40
69546;SHT31;56766;52.260;20.746;2023-05-07T00:12:59;5.86;89.43
69546;SHT31;56766;52.260;20.746;2023-05-07T00:15:25;5.87;89.50
69546;SHT31;56766;52.260;20.746;2023-05-07T00:17:53;5.86;89.50
69546;SHT31;56766;52.260;20.746;2023-05-07T00:20:26;5.85;89.50
69546;SHT31;56766;52.260;20.746;2023-05-07T00:22:53;5.86;89.50
69546;SHT31;56766;52.260;20.746;2023-05-07T00:25:20;5.86;89.51
69546;SHT31;56766;52.260;20.746;2023-05-07T00:27:48;5.86;89.50
69546;SHT31;56766;52.260;20.746;2023-05-07T00:30:15;5.84;89.53
69546;SHT31;56766;52.260;20.746;2023-05-07T00:32:42;5.84;89.59
69546;SHT31;56766;52.260;20.746;2023-05-07T00:35:12;5.84;89.60
69546;SHT31;56766;52.260;20.746;2023-05-07T00:37:38;5.84;89.62
69546;SHT31;56766;52.260;20.746;2023-05-07T00:40:07;5.85;89.68
69546;SHT31;56766;52.260;20.746;2023-05-07T00:42:34;5.84;89.70
69546;SHT31;56766;52.260;20.746;2023-05-07T00:45:00;5.82;89.66
69546;SHT31;56766;52.260;20.746;2023-05-07T00:47:27;5.80;89.67
69546;SHT31;56766;52.260;20.746;2023-05-07T00:49:54;5.80;89.70
69546;SHT31;56766;52.260;20.746;2023-05-07T00:52:22;5.82;89.70
69546;SHT31;56766;52.260;20.746;2023-05-07T00:54:54;5.83;89.71
69546;SHT31;56766;52.260;20.746;2023-05-07T00:57:21;5.82;89.70
69546;SHT31;56766;52.260;20.746;2023-05-07T00:59:51;5.82;89.72
69546;SHT31;56766;52.260;20.746;2023-05-07T01:02:18;5.80;89.72
69546;SHT31;56766;52.260;20.746;2023-05-07T01:04:45;5.78;89.76
69546;SHT31;56766;52.260;20.746;2023-05-07T01:07:12;5.77;89.79
69546;SHT31;56766;52.260;20.746;2023-05-07T01:09:39;5.75;89.81
69546;SHT31;56766;52.260;20.746;2023-05-07T01:12:07;5.74;89.81
69546;SHT31;56766;52.260;20.746;2023-05-07T01:14:34;5.72;89.80
69546;SHT31;56766;52.260;20.746;2023-05-07T01:17:01;5.71;89.82
69546;SHT31;56766;52.260;20.746;2023-05-07T01:19:29;5.70;89.84
69546;SHT31;56766;52.260;20.746;2023-05-07T01:22:03;5.69;89.88
69546;SHT31;56766;52.260;20.746;2023-05-07T01:24:36;5.69;89.90
69546;SHT31;56766;52.260;20.746;2023-05-07T01:27:04;5.66;89.91
69546;SHT31;56766;52.260;20.746;2023-05-07T01:29:30;5.64;89.94
69546;SHT31;56766;52.260;20.746;2023-05-07T01:32:05;5.64;89.99
69546;SHT31;56766;52.260;20.746;2023-05-07T01:34:36;5.62;90.06
69546;SHT31;56766;52.260;20.746;2023-05-07T01:37:03;5.59;90.10
69546;SHT31;56766;52.260;20.746;2023-05-07T01:39:31;5.57;90.18
69546;SHT31;56766;52.260;20.746;2023-05-07T01:41:59;5.57;90.16
69546;SHT31;56766;52.260;20.746;2023-05-07T01:44:27;5.57;90.18
69546;SHT31;56766;52.260;20.746;2023-05-07T01:46:55;5.55;90.19
69546;SHT31;56766;52.260;20.746;2023-05-07T01:49:22;5.55;90.19
69546;SHT31;56766;52.260;20.746;2023-05-07T01:51:49;5.54;90.20
69546;SHT31;56766;52.260;20.746;2023-05-07T01:54:16;5.54;90.27
69546;SHT31;56766;52.260;20.746;2023-05-07T01:56:42;5.52;90.31
69546;SHT31;56766;52.260;20.746;2023-05-07T01:59:08;5.49;90.39
69546;SHT31;56766;52.260;20.746;2023-05-07T02:01:35;5.49;90.42
69546;SHT31;56766;52.260;20.746;2023-05-07T02:04:01;5.49;90.40
69546;SHT31;56766;52.260;20.746;2023-05-07T02:06:27;5.46;90.42
69546;SHT31;56766;52.260;20.746;2023-05-07T02:08:54;5.45;90.48
69546;SHT31;56766;52.260;20.746;2023-05-07T02:11:20;5.44;90.41
69546;SHT31;56766;52.260;20.746;2023-05-07T02:13:46;5.43;90.44
69546;SHT31;56766;52.260;20.746;2023-05-07T02:16:13;5.41;90.50
69546;SHT31;56766;52.260;20.746;2023-05-07T02:18:40;5.42;90.54
69546;SHT31;56766;52.260;20.746;2023-05-07T02:21:06;5.41;90.60
69546;SHT31;56766;52.260;20.746;2023-05-07T02:23:33;5.40;90.60
69546;SHT31;56766;52.260;20.746;2023-05-07T02:26:00;5.39;90.60
69546;SHT31;56766;52.260;20.746;2023-05-07T02:28:26;5.39;90.60
69546;SHT31;56766;52.260;20.746;2023-05-07T02:30:52;5.38;90.71
69546;SHT31;56766;52.260;20.746;2023-05-07T02:33:18;5.36;90.69
69546;SHT31;56766;52.260;20.746;2023-05-07T02:35:45;5.36;90.70
69546;SHT31;56766;52.260;20.746;2023-05-07T02:38:12;5.36;90.69
69546;SHT31;56766;52.260;20.746;2023-05-07T02:40:38;5.36;90.69
69546;SHT31;56766;52.260;20.746;2023-05-07T02:43:06;5.36;90.70
69546;SHT31;56766;52.260;20.746;2023-05-07T02:45:33;5.35;90.70
69546;SHT31;56766;52.260;20.746;2023-05-07T02:47:59;5.35;90.70
69546;SHT31;56766;52.260;20.746;2023-05-07T02:50:25;5.35;90.70
69546;SHT31;56766;52.260;20.746;2023-05-07T02:52:53;5.34;90.70
69546;SHT31;56766;52.260;20.746;2023-05-07T02:55:19;5.34;90.70
69546;SHT31;56766;52.260;20.746;2023-05-07T02:57:46;5.34;90.70
69546;SHT31;56766;52.260;20.746;2023-05-07T03:00:19;5.34;90.70
69546;SHT31;56766;52.260;20.746;2023-05-07T03:02:46;5.35;90.71
69546;SHT31;56766;52.260;20.746;2023-05-07T03:05:13;5.35;90.72
69546;SHT31;56766;52.260;20.746;2023-05-07T03:07:40;5.35;90.72
69546;SHT31;56766;52.260;20.746;2023-05-07T03:10:09;5.33;90.79
69546;SHT31;56766;52.260;20.746;2023-05-07T03:12:36;5.33;90.80
69546;SHT31;56766;52.260;20.746;2023-05-07T03:15:02;5.34;90.77
69546;SHT31;56766;52.260;20.746;2023-05-07T03:17:28;5.35;90.78
69546;SHT31;56766;52.260;20.746;2023-05-07T03:19:55;5.34;90.78
69546;SHT31;56766;52.260;20.746;2023-05-07T03:22:21;5.36;90.71
69546;SHT31;56766;52.260;20.746;2023-05-07T03:24:47;5.36;90.70
69546;SHT31;56766;52.260;20.746;2023-05-07T03:27:16;5.37;90.70
69546;SHT31;56766;52.260;20.746;2023-05-07T03:29:42;5.38;90.70
69546;SHT31;56766;52.260;20.746;2023-05-07T03:32:08;5.39;90.70
69546;SHT31;56766;52.260;20.746;2023-05-07T03:34:35;5.40;90.72
69546;SHT31;56766;52.260;20.746;2023-05-07T03:37:02;5.41;90.70
69546;SHT31;56766;52.260;20.746;2023-05-07T03:39:28;5.44;90.71
69546;SHT31;56766;52.260;20.746;2023-05-07T03:41:54;5.44;90.70
69546;SHT31;56766;52.260;20.746;2023-05-07T03:44:21;5.44;90.70
69546;SHT31;56766;52.260;20.746;2023-05-07T03:46:47;5.45;90.70
69546;SHT31;56766;52.260;20.746;2023-05-07T03:49:14;5.47;90.70
69546;SHT31;56766;52.260;20.746;2023-05-07T03:51:40;5.48;90.70
69546;SHT31;56766;52.260;20.746;2023-05-07T03:54:09;5.48;90.71
69546;SHT31;56766;52.260;20.746;2023-05-07T03:56:36;5.47;90.69
69546;SHT31;56766;52.260;20.746;2023-05-07T03:59:02;5.48;90.70
69546;SHT31;56766;52.260;20.746;2023-05-07T04:01:29;5.49;90.70
69546;SHT31;56766;52.260;20.746;2023-05-07T04:03:55;5.51;90.70
69546;SHT31;56766;52.260;20.746;2023-05-07T04:06:22;5.51;90.73
69546;SHT31;56766;52.260;20.746;2023-05-07T04:08:48;5.52;90.73
69546;SHT31;56766;52.260;20.746;2023-05-07T04:11:14;5.56;90.73
69546;SHT31;56766;52.260;20.746;2023-05-07T04:13:41;5.57;90.70
69546;SHT31;56766;52.260;20.746;2023-05-07T04:16:07;5.59;90.70
69546;SHT31;56766;52.260;20.746;2023-05-07T04:18:34;5.60;90.70
69546;SHT31;56766;52.260;20.746;2023-05-07T04:21:00;5.62;90.70
69546;SHT31;56766;52.260;20.746;2023-05-07T04:23:26;5.63;90.69
69546;SHT31;56766;52.260;20.746;2023-05-07T04:25:54;5.64;90.68
69546;SHT31;56766;52.260;20.746;2023-05-07T04:28:20;5.67;90.70
69546;SHT31;56766;52.260;20.746;2023-05-07T04:30:48;5.69;90.68
69546;SHT31;56766;52.260;20.746;2023-05-07T04:33:15;5.70;90.65
69546;SHT31;56766;52.260;20.746;2023-05-07T04:35:45;5.72;90.68
69546;SHT31;56766;52.260;20.746;2023-05-07T04:38:13;5.72;90.66
69546;SHT31;56766;52.260;20.746;2023-05-07T04:40:39;5.73;90.61
69546;SHT31;56766;52.260;20.746;2023-05-07T04:43:05;5.76;90.62
69546;SHT31;56766;52.260;20.746;2023-05-07T04:45:32;5.80;90.59
69546;SHT31;56766;52.260;20.746;2023-05-07T04:47:58;5.83;90.58
69546;SHT31;56766;52.260;20.746;2023-05-07T04:50:24;5.88;90.59
69546;SHT31;56766;52.260;20.746;2023-05-07T04:52:50;5.94;90.59
69546;SHT31;56766;52.260;20.746;2023-05-07T04:55:17;6.01;90.54
69546;SHT31;56766;52.260;20.746;2023-05-07T04:57:43;6.03;90.48
69546;SHT31;56766;52.260;20.746;2023-05-07T05:00:09;6.06;90.37
69546;SHT31;56766;52.260;20.746;2023-05-07T05:02:36;6.08;90.30
69546;SHT31;56766;52.260;20.746;2023-05-07T05:05:03;6.12;90.27
69546;SHT31;56766;52.260;20.746;2023-05-07T05:07:31;6.16;90.20
69546;SHT31;56766;52.260;20.746;2023-05-07T05:09:57;6.22;90.11
69546;SHT31;56766;52.260;20.746;2023-05-07T05:12:23;6.28;89.99
69546;SHT31;56766;52.260;20.746;2023-05-07T05:14:49;6.33;89.91
69546;SHT31;56766;52.260;20.746;2023-05-07T05:17:15;6.37;89.85
69546;SHT31;56766;52.260;20.746;2023-05-07T05:19:41;6.47;89.88
69546;SHT31;56766;52.260;20.746;2023-05-07T05:22:08;6.55;89.78
69546;SHT31;56766;52.260;20.746;2023-05-07T05:24:34;6.59;89.56
69546;SHT31;56766;52.260;20.746;2023-05-07T05:27:00;6.66;89.59
69546;SHT31;56766;52.260;20.746;2023-05-07T05:29:27;6.78;89.57
69546;SHT31;56766;52.260;20.746;2023-05-07T05:31:54;6.94;89.29
69546;SHT31;56766;52.260;20.746;2023-05-07T05:34:20;7.07;89.14
69546;SHT31;56766;52.260;20.746;2023-05-07T05:36:47;7.26;89.07
69546;SHT31;56766;52.260;20.746;2023-05-07T05:39:14;7.49;88.79
69546;SHT31;56766;52.260;20.746;2023-05-07T05:41:40;7.60;88.27
69546;SHT31;56766;52.260;20.746;2023-05-07T05:44:06;7.59;88.04
69546;SHT31;56766;52.260;20.746;2023-05-07T05:46:32;7.60;87.97
69546;SHT31;56766;52.260;20.746;2023-05-07T05:48:59;7.55;87.67
69546;SHT31;56766;52.260;20.746;2023-05-07T05:51:25;7.55;87.78
69546;SHT31;56766;52.260;20.746;2023-05-07T05:53:52;7.50;87.52
69546;SHT31;56766;52.260;20.746;2023-05-07T05:56:19;7.39;87.04
69546;SHT31;56766;52.260;20.746;2023-05-07T05:58:46;7.30;87.12
69546;SHT31;56766;52.260;20.746;2023-05-07T06:01:12;7.28;87.48
69546;SHT31;56766;52.260;20.746;2023-05-07T06:03:38;7.27;87.41
69546;SHT31;56766;52.260;20.746;2023-05-07T06:06:05;7.22;87.15
69546;SHT31;56766;52.260;20.746;2023-05-07T06:08:31;7.15;86.97
69546;SHT31;56766;52.260;20.746;2023-05-07T06:10:58;7.13;87.03
69546;SHT31;56766;52.260;20.746;2023-05-07T06:13:25;7.13;87.07
69546;SHT31;56766;52.260;20.746;2023-05-07T06:15:51;7.15;87.12
69546;SHT31;56766;52.260;20.746;2023-05-07T06:18:18;7.17;87.15
69546;SHT31;56766;52.260;20.746;2023-05-07T06:20:44;7.15;86.72
69546;SHT31;56766;52.260;20.746;2023-05-07T06:23:10;7.14;86.83
69546;SHT31;56766;52.260;20.746;2023-05-07T06:25:37;7.14;86.70
69546;SHT31;56766;52.260;20.746;2023-05-07T06:28:05;7.12;86.64
69546;SHT31;56766;52.260;20.746;2023-05-07T06:30:32;7.08;86.54
69546;SHT31;56766;52.260;20.746;2023-05-07T06:32:58;7.08;86.66
69546;SHT31;56766;52.260;20.746;2023-05-07T06:35:24;7.15;86.89
69546;SHT31;56766;52.260;20.746;2023-05-07T06:37:51;7.24;86.69
69546;SHT31;56766;52.260;20.746;2023-05-07T06:40:18;7.25;86.32
69546;SHT31;56766;52.260;20.746;2023-05-07T06:42:45;7.34;86.68
69546;SHT31;56766;52.260;20.746;2023-05-07T06:45:12;7.51;86.65
69546;SHT31;56766;52.260;20.746;2023-05-07T06:47:39;7.63;86.27
69546;SHT31;56766;52.260;20.746;2023-05-07T06:50:06;7.76;86.26
69546;SHT31;56766;52.260;20.746;2023-05-07T06:52:33;7.87;86.10
69546;SHT31;56766;52.260;20.746;2023-05-07T06:54:59;7.90;85.79
69546;SHT31;56766;52.260;20.746;2023-05-07T06:57:26;7.88;85.45
69546;SHT31;56766;52.260;20.746;2023-05-07T06:59:53;7.89;85.43
69546;SHT31;56766;52.260;20.746;2023-05-07T07:02:20;7.91;85.25
69546;SHT31;56766;52.260;20.746;2023-05-07T07:04:47;7.92;84.93
69546;SHT31;56766;52.260;20.746;2023-05-07T07:07:13;8.00;85.12
69546;SHT31;56766;52.260;20.746;2023-05-07T07:09:39;8.14;85.18
69546;SHT31;56766;52.260;20.746;2023-05-07T07:12:06;8.29;84.79
69546;SHT31;56766;52.260;20.746;2023-05-07T07:14:32;8.41;84.43
69546;SHT31;56766;52.260;20.746;2023-05-07T07:16:58;8.54;84.19
69546;SHT31;56766;52.260;20.746;2023-05-07T07:19:26;8.69;84.15
69546;SHT31;56766;52.260;20.746;2023-05-07T07:21:53;8.78;83.40
69546;SHT31;56766;52.260;20.746;2023-05-07T07:24:20;8.98;83.79
69546;SHT31;56766;52.260;20.746;2023-05-07T07:26:49;9.26;83.86
69546;SHT31;56766;52.260;20.746;2023-05-07T07:29:25;9.44;83.24
69546;SHT31;56766;52.260;20.746;2023-05-07T07:31:53;9.61;82.52
69546;SHT31;56766;52.260;20.746;2023-05-07T07:34:19;9.66;81.48
69546;SHT31;56766;52.260;20.746;2023-05-07T07:36:46;9.76;81.93
69546;SHT31;56766;52.260;20.746;2023-05-07T07:39:22;9.77;81.13
69546;SHT31;56766;52.260;20.746;2023-05-07T07:41:49;9.76;79.77
69546;SHT31;56766;52.260;20.746;2023-05-07T07:44:16;9.59;78.71
69546;SHT31;56766;52.260;20.746;2023-05-07T07:46:43;9.58;79.63
69546;SHT31;56766;52.260;20.746;2023-05-07T07:49:10;9.46;77.94
69546;SHT31;56766;52.260;20.746;2023-05-07T07:51:37;9.53;79.22
69546;SHT31;56766;52.260;20.746;2023-05-07T07:54:04;9.76;79.11
69546;SHT31;56766;52.260;20.746;2023-05-07T07:56:32;9.97;78.77
69546;SHT31;56766;52.260;20.746;2023-05-07T07:59:05;10.20;78.42
69546;SHT31;56766;52.260;20.746;2023-05-07T08:01:32;10.38;77.55
69546;SHT31;56766;52.260;20.746;2023-05-07T08:03:58;10.55;77.47
69546;SHT31;56766;52.260;20.746;2023-05-07T08:06:29;10.59;77.11
69546;SHT31;56766;52.260;20.746;2023-05-07T08:08:57;10.77;76.70
69546;SHT31;56766;52.260;20.746;2023-05-07T08:11:27;10.93;75.47
69546;SHT31;56766;52.260;20.746;2023-05-07T08:14:02;11.05;75.79
69546;SHT31;56766;52.260;20.746;2023-05-07T08:16:33;11.10;73.31
69546;SHT31;56766;52.260;20.746;2023-05-07T08:19:00;11.07;73.57
69546;SHT31;56766;52.260;20.746;2023-05-07T08:21:38;11.02;73.71
69546;SHT31;56766;52.260;20.746;2023-05-07T08:24:08;11.00;73.23
69546;SHT31;56766;52.260;20.746;2023-05-07T08:26:35;11.02;73.21
69546;SHT31;56766;52.260;20.746;2023-05-07T08:29:02;10.97;73.12
69546;SHT31;56766;52.260;20.746;2023-05-07T08:31:37;10.97;73.22
69546;SHT31;56766;52.260;20.746;2023-05-07T08:34:06;10.87;72.05
69546;SHT31;56766;52.260;20.746;2023-05-07T08:36:33;10.81;72.92
69546;SHT31;56766;52.260;20.746;2023-05-07T08:39:00;10.82;72.66
69546;SHT31;56766;52.260;20.746;2023-05-07T08:41:29;10.83;71.89
69546;SHT31;56766;52.260;20.746;2023-05-07T08:43:58;10.91;71.72
69546;SHT31;56766;52.260;20.746;2023-05-07T08:46:41;11.25;72.70
69546;SHT31;56766;52.260;20.746;2023-05-07T08:49:40;11.51;70.35
69546;SHT31;56766;52.260;20.746;2023-05-07T08:52:30;11.46;69.73
69546;SHT31;56766;52.260;20.746;2023-05-07T08:55:01;11.61;70.40
69546;SHT31;56766;52.260;20.746;2023-05-07T08:57:30;11.95;70.43
69546;SHT31;56766;52.260;20.746;2023-05-07T08:59:57;11.96;69.33
69546;SHT31;56766;52.260;20.746;2023-05-07T09:02:37;11.71;69.15
69546;SHT31;56766;52.260;20.746;2023-05-07T09:05:16;11.38;68.29
69546;SHT31;56766;52.260;20.746;2023-05-07T09:07:46;11.29;68.88
69546;SHT31;56766;52.260;20.746;2023-05-07T09:10:14;11.29;68.55
69546;SHT31;56766;52.260;20.746;2023-05-07T09:12:53;11.32;67.45
69546;SHT31;56766;52.260;20.746;2023-05-07T09:15:19;11.66;67.63
69546;SHT31;56766;52.260;20.746;2023-05-07T09:17:46;11.84;65.97
69546;SHT31;56766;52.260;20.746;2023-05-07T09:20:21;12.19;66.96
69546;SHT31;56766;52.260;20.746;2023-05-07T09:22:59;12.30;65.63
69546;SHT31;56766;52.260;20.746;2023-05-07T09:25:38;11.98;64.73
69546;SHT31;56766;52.260;20.746;2023-05-07T09:28:10;11.72;65.65
69546;SHT31;56766;52.260;20.746;2023-05-07T09:30:39;11.63;66.15
69546;SHT31;56766;52.260;20.746;2023-05-07T09:33:18;11.85;66.16
69546;SHT31;56766;52.260;20.746;2023-05-07T09:36:01;12.46;66.25
69546;SHT31;56766;52.260;20.746;2023-05-07T09:38:29;12.74;66.57
69546;SHT31;56766;52.260;20.746;2023-05-07T09:41:13;12.76;66.25
69546;SHT31;56766;52.260;20.746;2023-05-07T09:43:56;12.81;65.80
69546;SHT31;56766;52.260;20.746;2023-05-07T09:46:33;12.84;65.26
69546;SHT31;56766;52.260;20.746;2023-05-07T09:49:07;13.10;65.95
69546;SHT31;56766;52.260;20.746;2023-05-07T09:52:05;13.59;64.76
69546;SHT31;56766;52.260;20.746;2023-05-07T09:54:42;13.28;60.87
69546;SHT31;56766;52.260;20.746;2023-05-07T09:57:19;12.74;62.47
69546;SHT31;56766;52.260;20.746;2023-05-07T09:59:56;12.36;62.90
69546;SHT31;56766;52.260;20.746;2023-05-07T10:02:49;12.09;62.93
69546;SHT31;56766;52.260;20.746;2023-05-07T10:05:22;11.96;63.32
69546;SHT31;56766;52.260;20.746;2023-05-07T10:07:54;11.99;62.85
69546;SHT31;56766;52.260;20.746;2023-05-07T10:10:23;12.25;63.74
69546;SHT31;56766;52.260;20.746;2023-05-07T10:13:07;12.96;64.20
69546;SHT31;56766;52.260;20.746;2023-05-07T10:15:44;13.55;62.56
69546;SHT31;56766;52.260;20.746;2023-05-07T10:18:19;13.53;59.31
69546;SHT31;56766;52.260;20.746;2023-05-07T10:20:52;13.35;59.45
69546;SHT31;56766;52.260;20.746;2023-05-07T10:23:39;13.24;60.36
69546;SHT31;56766;52.260;20.746;2023-05-07T10:26:38;13.52;59.46
69546;SHT31;56766;52.260;20.746;2023-05-07T10:33:18;14.32;58.35
69546;SHT31;56766;52.260;20.746;2023-05-07T10:35:58;14.40;59.53
69546;SHT31;56766;52.260;20.746;2023-05-07T10:38:49;14.59;59.86
69546;SHT31;56766;52.260;20.746;2023-05-07T10:41:27;14.99;58.42
69546;SHT31;56766;52.260;20.746;2023-05-07T10:44:35;15.23;57.52
69546;SHT31;56766;52.260;20.746;2023-05-07T10:47:14;15.44;57.94
69546;SHT31;56766;52.260;20.746;2023-05-07T10:52:47;14.72;56.44
69546;SHT31;56766;52.260;20.746;2023-05-07T10:56:38;14.23;55.88
69546;SHT31;56766;52.260;20.746;2023-05-07T10:59:51;13.95;57.13
69546;SHT31;56766;52.260;20.746;2023-05-07T11:05:48;13.30;56.62
69546;SHT31;56766;52.260;20.746;2023-05-07T11:09:30;12.98;57.00
69546;SHT31;56766;52.260;20.746;2023-05-07T11:13:02;12.87;58.27
69546;SHT31;56766;52.260;20.746;2023-05-07T11:19:19;13.12;57.51
69546;SHT31;56766;52.260;20.746;2023-05-07T11:22:59;13.57;58.44
69546;SHT31;56766;52.260;20.746;2023-05-07T11:26:15;13.95;56.70
69546;SHT31;56766;52.260;20.746;2023-05-07T11:29:17;13.94;54.63
69546;SHT31;56766;52.260;20.746;2023-05-07T11:32:24;13.70;55.40
69546;SHT31;56766;52.260;20.746;2023-05-07T11:35:31;13.59;56.53
69546;SHT31;56766;52.260;20.746;2023-05-07T11:38:11;13.72;57.21
69546;SHT31;56766;52.260;20.746;2023-05-07T11:40:57;13.76;54.34
69546;SHT31;56766;52.260;20.746;2023-05-07T11:43:53;13.72;54.95
69546;SHT31;56766;52.260;20.746;2023-05-07T11:46:48;13.90;56.60
69546;SHT31;56766;52.260;20.746;2023-05-07T11:49:46;14.16;55.24
69546;SHT31;56766;52.260;20.746;2023-05-07T11:52:36;14.22;54.86
69546;SHT31;56766;52.260;20.746;2023-05-07T11:55:35;14.47;57.36
69546;SHT31;56766;52.260;20.746;2023-05-07T11:58:39;14.72;55.23
69546;SHT31;56766;52.260;20.746;2023-05-07T12:01:35;14.90;52.58
69546;SHT31;56766;52.260;20.746;2023-05-07T12:10:51;14.50;51.25
69546;SHT31;56766;52.260;20.746;2023-05-07T12:17:01;14.43;51.73
69546;SHT31;56766;52.260;20.746;2023-05-07T12:20:00;14.38;50.94
69546;SHT31;56766;52.260;20.746;2023-05-07T12:23:18;14.63;52.32
69546;SHT31;56766;52.260;20.746;2023-05-07T12:26:14;15.26;53.28
69546;SHT31;56766;52.260;20.746;2023-05-07T12:29:22;16.00;52.94
69546;SHT31;56766;52.260;20.746;2023-05-07T12:35:55;15.75;47.81
69546;SHT31;56766;52.260;20.746;2023-05-07T12:38:57;15.36;49.77
69546;SHT31;56766;52.260;20.746;2023-05-07T12:42:15;15.32;50.83
69546;SHT31;56766;52.260;20.746;2023-05-07T12:45:41;15.43;50.19
69546;SHT31;56766;52.260;20.746;2023-05-07T12:48:41;15.33;49.79
69546;SHT31;56766;52.260;20.746;2023-05-07T12:52:18;15.35;49.85
69546;SHT31;56766;52.260;20.746;2023-05-07T12:55:25;15.47;49.90
69546;SHT31;56766;52.260;20.746;2023-05-07T12:57:52;15.50;49.27
69546;SHT31;56766;52.260;20.746;2023-05-07T13:00:37;15.56;49.76
69546;SHT31;56766;52.260;20.746;2023-05-07T13:03:04;15.57;48.91
69546;SHT31;56766;52.260;20.746;2023-05-07T13:05:31;15.47;47.75
69546;SHT31;56766;52.260;20.746;2023-05-07T13:07:58;15.15;47.17
69546;SHT31;56766;52.260;20.746;2023-05-07T13:10:25;14.91;49.18
69546;SHT31;56766;52.260;20.746;2023-05-07T13:12:51;15.02;50.29
69546;SHT31;56766;52.260;20.746;2023-05-07T13:15:19;15.03;50.07
69546;SHT31;56766;52.260;20.746;2023-05-07T13:17:45;14.96;50.41
69546;SHT31;56766;52.260;20.746;2023-05-07T13:20:11;14.63;49.14
69546;SHT31;56766;52.260;20.746;2023-05-07T13:22:39;14.44;50.22
69546;SHT31;56766;52.260;20.746;2023-05-07T13:25:06;14.41;50.69
69546;SHT31;56766;52.260;20.746;2023-05-07T13:27:32;14.46;50.31
69546;SHT31;56766;52.260;20.746;2023-05-07T13:30:03;14.48;49.83
69546;SHT31;56766;52.260;20.746;2023-05-07T13:32:30;14.54;51.05
69546;SHT31;56766;52.260;20.746;2023-05-07T13:34:57;14.62;50.47
69546;SHT31;56766;52.260;20.746;2023-05-07T13:37:24;14.62;48.14
69546;SHT31;56766;52.260;20.746;2023-05-07T13:39:49;14.49;48.93
69546;SHT31;56766;52.260;20.746;2023-05-07T13:42:15;14.30;49.80
69546;SHT31;56766;52.260;20.746;2023-05-07T13:44:42;14.28;50.01
69546;SHT31;56766;52.260;20.746;2023-05-07T13:47:09;14.24;50.13
69546;SHT31;56766;52.260;20.746;2023-05-07T13:49:35;14.09;50.18
69546;SHT31;56766;52.260;20.746;2023-05-07T13:52:02;13.87;49.79
69546;SHT31;56766;52.260;20.746;2023-05-07T13:54:34;13.62;49.78
69546;SHT31;56766;52.260;20.746;2023-05-07T14:02:59;13.17;50.72
69546;SHT31;56766;52.260;20.746;2023-05-07T14:05:33;13.05;51.21
69546;SHT31;56766;52.260;20.746;2023-05-07T14:08:00;13.19;52.92
69546;SHT31;56766;52.260;20.746;2023-05-07T14:10:32;13.47;52.40
69546;SHT31;56766;52.260;20.746;2023-05-07T14:13:12;13.45;51.25
69546;SHT31;56766;52.260;20.746;2023-05-07T14:15:38;13.41;51.37
69546;SHT31;56766;52.260;20.746;2023-05-07T14:18:15;13.55;51.14
69546;SHT31;56766;52.260;20.746;2023-05-07T14:20:51;13.74;51.03
69546;SHT31;56766;52.260;20.746;2023-05-07T14:23:25;13.86;51.07
69546;SHT31;56766;52.260;20.746;2023-05-07T14:25:58;13.94;51.20
69546;SHT31;56766;52.260;20.746;2023-05-07T14:28:25;14.01;51.20
69546;SHT31;56766;52.260;20.746;2023-05-07T14:31:07;14.12;51.14
69546;SHT31;56766;52.260;20.746;2023-05-07T14:33:42;14.25;49.54
69546;SHT31;56766;52.260;20.746;2023-05-07T14:36:12;14.21;46.77
69546;SHT31;56766;52.260;20.746;2023-05-07T14:38:38;14.10;46.57
69546;SHT31;56766;52.260;20.746;2023-05-07T14:41:25;13.98;46.07
69546;SHT31;56766;52.260;20.746;2023-05-07T14:43:54;13.92;47.39
69546;SHT31;56766;52.260;20.746;2023-05-07T14:46:21;14.00;47.94
69546;SHT31;56766;52.260;20.746;2023-05-07T14:48:48;14.11;48.06
69546;SHT31;56766;52.260;20.746;2023-05-07T14:51:17;14.10;47.52
69546;SHT31;56766;52.260;20.746;2023-05-07T14:53:44;14.10;48.73
69546;SHT31;56766;52.260;20.746;2023-05-07T14:56:10;14.14;48.81
69546;SHT31;56766;52.260;20.746;2023-05-07T14:58:50;14.07;49.11
69546;SHT31;56766;52.260;20.746;2023-05-07T15:01:19;14.04;49.75
69546;SHT31;56766;52.260;20.746;2023-05-07T15:03:54;14.12;49.22
69546;SHT31;56766;52.260;20.746;2023-05-07T15:06:28;14.13;48.39
69546;SHT31;56766;52.260;20.746;2023-05-07T15:08:56;14.17;48.32
69546;SHT31;56766;52.260;20.746;2023-05-07T15:11:26;14.18;48.15
69546;SHT31;56766;52.260;20.746;2023-05-07T15:13:55;14.18;49.70
69546;SHT31;56766;52.260;20.746;2023-05-07T15:16:21;14.10;49.07
69546;SHT31;56766;52.260;20.746;2023-05-07T15:18:49;14.00;48.76
69546;SHT31;56766;52.260;20.746;2023-05-07T15:21:16;13.88;49.23
69546;SHT31;56766;52.260;20.746;2023-05-07T15:23:44;13.84;49.77
69546;SHT31;56766;52.260;20.746;2023-05-07T15:26:11;13.82;48.71
69546;SHT31;56766;52.260;20.746;2023-05-07T15:28:38;13.78;49.58
69546;SHT31;56766;52.260;20.746;2023-05-07T15:31:06;13.78;50.11
69546;SHT31;56766;52.260;20.746;2023-05-07T15:33:32;13.77;50.30
69546;SHT31;56766;52.260;20.746;2023-05-07T15:36:00;13.78;51.31
69546;SHT31;56766;52.260;20.746;2023-05-07T15:38:28;13.80;51.41
69546;SHT31;56766;52.260;20.746;2023-05-07T15:40:57;13.76;50.57
69546;SHT31;56766;52.260;20.746;2023-05-07T15:43:27;13.66;49.75
69546;SHT31;56766;52.260;20.746;2023-05-07T15:46:07;13.55;49.11
69546;SHT31;56766;52.260;20.746;2023-05-07T15:48:39;13.45;49.34
69546;SHT31;56766;52.260;20.746;2023-05-07T15:51:10;13.35;49.57
69546;SHT31;56766;52.260;20.746;2023-05-07T15:53:38;13.25;49.94
69546;SHT31;56766;52.260;20.746;2023-05-07T15:56:08;13.18;50.34
69546;SHT31;56766;52.260;20.746;2023-05-07T15:58:40;13.13;50.61
69546;SHT31;56766;52.260;20.746;2023-05-07T16:01:11;13.04;50.84
69546;SHT31;56766;52.260;20.746;2023-05-07T16:03:46;12.96;50.64
69546;SHT31;56766;52.260;20.746;2023-05-07T16:06:13;12.91;50.23
69546;SHT31;56766;52.260;20.746;2023-05-07T16:08:46;12.84;50.50
69546;SHT31;56766;52.260;20.746;2023-05-07T16:11:13;12.80;49.76
69546;SHT31;56766;52.260;20.746;2023-05-07T16:13:42;12.76;49.90
69546;SHT31;56766;52.260;20.746;2023-05-07T16:16:10;12.73;50.08
69546;SHT31;56766;52.260;20.746;2023-05-07T16:18:37;12.66;51.00
69546;SHT31;56766;52.260;20.746;2023-05-07T16:21:06;12.59;51.62
69546;SHT31;56766;52.260;20.746;2023-05-07T16:23:49;12.51;51.63
69546;SHT31;56766;52.260;20.746;2023-05-07T16:26:16;12.44;52.23
69546;SHT31;56766;52.260;20.746;2023-05-07T16:28:43;12.37;52.23